Time;durP1;ratioP1;P1;durP2;ratioP2;P2;SDS_P1;SDS_P2;PMS_P1;PMS_P2;Temp;Humidity;BMP_temperature;BMP_pressure;BME280_temperature;BME280_humidity;BME280_pressure;Samples;Min_cycle;Max_cycle;Signal;HPM_P1;HPM_P2
2022/07/22 00:01:19;;;;;;;62.37;58.77;;;18.30;99.90;;;;;;5013026;28;20179;-74
2022/07/22 00:03:45;;;;;;;97.87;92.63;;;18.20;99.90;;;;;;5013804;28;20274;-74
2022/07/22 00:06:11;;;;;;;108.70;102.87;;;18.20;99.90;;;;;;5014110;28;20266;-74
2022/07/22 00:08:37;;;;;;;74.77;70.57;;;18.10;99.90;;;;;;5011701;28;20271;-74
2022/07/22 00:11:04;;;;;;;42.97;40.40;;;18.00;99.90;;;;;;5013984;28;20733;-74
2022/07/22 00:13:30;;;;;;;53.47;50.33;;;18.00;99.90;;;;;;5013489;28;20234;-74
2022/07/22 00:15:57;;;;;;;46.93;44.27;;;18.00;99.90;;;;;;5014035;28;20209;-73
2022/07/22 00:18:23;;;;;;;46.63;43.60;;;18.00;99.90;;;;;;5012957;28;20553;-74
2022/07/22 00:20:48;;;;;;;56.03;52.63;;;18.00;99.90;;;;;;5013590;28;20206;-74
2022/07/22 00:23:14;;;;;;;50.17;47.10;;;18.00;99.90;;;;;;5012237;28;20592;-73
2022/07/22 00:25:41;;;;;;;60.87;57.20;;;17.90;99.90;;;;;;5012645;28;20194;-74
2022/07/22 00:28:07;;;;;;;68.07;64.30;;;17.90;99.90;;;;;;5012732;28;20184;-74
2022/07/22 00:30:33;;;;;;;57.27;53.87;;;17.90;99.90;;;;;;5017406;28;20691;-74
2022/07/22 00:32:59;;;;;;;73.37;69.37;;;17.90;99.90;;;;;;5012620;28;20287;-74
2022/07/22 00:35:25;;;;;;;33.03;31.13;;;17.90;99.90;;;;;;5012002;28;20290;-74
2022/07/22 00:37:51;;;;;;;49.33;45.83;;;17.80;99.90;;;;;;5011452;28;20179;-74
2022/07/22 00:40:16;;;;;;;65.63;62.03;;;17.80;99.90;;;;;;5011365;28;20202;-73
2022/07/22 00:42:42;;;;;;;59.47;55.57;;;17.70;99.90;;;;;;5012111;28;20723;-74
2022/07/22 00:45:08;;;;;;;39.90;37.30;;;17.60;99.90;;;;;;5013907;28;20179;-76
2022/07/22 00:47:35;;;;;;;45.23;42.47;;;17.50;99.90;;;;;;5011780;28;20183;-74
2022/07/22 00:50:01;;;;;;;49.07;46.00;;;17.50;99.90;;;;;;5013138;28;20219;-74
2022/07/22 00:52:27;;;;;;;46.07;43.47;;;17.60;99.90;;;;;;5012373;28;20190;-74
2022/07/22 00:54:54;;;;;;;40.97;38.53;;;17.60;99.90;;;;;;5013318;28;20207;-74
2022/07/22 00:57:20;;;;;;;41.50;39.00;;;17.60;99.90;;;;;;5012407;28;20711;-74
2022/07/22 00:59:46;;;;;;;45.20;42.63;;;17.70;99.90;;;;;;5011845;28;20192;-74
2022/07/22 01:02:11;;;;;;;45.77;42.90;;;17.60;99.90;;;;;;5011640;28;20203;-74
2022/07/22 01:04:37;;;;;;;65.60;61.83;;;17.50;99.90;;;;;;5013103;28;20234;-74
2022/07/22 01:07:03;;;;;;;46.10;43.00;;;17.50;99.90;;;;;;5011011;28;20619;-74
2022/07/22 01:09:29;;;;;;;75.17;71.13;;;17.50;99.90;;;;;;5012787;28;20215;-74
2022/07/22 01:11:55;;;;;;;79.27;75.00;;;17.40;99.90;;;;;;5011475;28;20234;-74
2022/07/22 01:14:21;;;;;;;64.27;60.60;;;17.40;99.90;;;;;;5012629;28;20207;-74
2022/07/22 01:16:47;;;;;;;75.73;71.70;;;17.30;99.90;;;;;;5012079;28;20183;-74
2022/07/22 01:19:12;;;;;;;58.57;55.27;;;17.30;99.90;;;;;;5011376;28;20196;-74
2022/07/22 01:21:38;;;;;;;70.80;66.60;;;17.30;99.90;;;;;;5012592;28;20215;-74
2022/07/22 01:24:05;;;;;;;45.13;42.33;;;17.20;99.90;;;;;;5011185;28;20184;-74
2022/07/22 01:26:33;;;;;;;66.80;62.90;;;17.30;99.90;;;;;;5012866;28;20199;-74
2022/07/22 01:28:59;;;;;;;45.77;43.07;;;17.30;99.90;;;;;;5010153;28;20286;-74
2022/07/22 01:31:25;;;;;;;48.93;46.13;;;17.20;99.90;;;;;;5012507;28;20187;-74
2022/07/22 01:33:51;;;;;;;46.90;43.83;;;17.20;99.90;;;;;;5011145;28;20207;-74
2022/07/22 01:36:17;;;;;;;25.60;23.83;;;17.20;99.90;;;;;;5012409;28;20664;-74
2022/07/22 01:38:43;;;;;;;23.30;21.63;;;17.20;99.90;;;;;;5011314;28;20194;-74
2022/07/22 01:41:09;;;;;;;33.33;31.37;;;17.20;99.90;;;;;;5012261;28;20560;-74
2022/07/22 01:43:35;;;;;;;26.87;25.03;;;17.20;99.90;;;;;;5012141;28;20179;-73
2022/07/22 01:46:01;;;;;;;29.87;27.87;;;17.00;99.90;;;;;;5012223;28;20180;-73
2022/07/22 01:48:26;;;;;;;24.13;22.47;;;16.90;99.90;;;;;;5011292;28;20206;-74
2022/07/22 01:50:52;;;;;;;19.87;18.37;;;16.90;99.90;;;;;;5010621;28;20672;-73
2022/07/22 01:53:18;;;;;;;19.97;18.77;;;16.80;99.90;;;;;;5011347;28;20302;-73
2022/07/22 01:55:44;;;;;;;17.87;16.47;;;16.80;99.90;;;;;;5012181;28;20184;-74
2022/07/22 01:58:10;;;;;;;22.03;20.43;;;16.70;99.90;;;;;;5010036;28;20176;-73
2022/07/22 02:00:38;;;;;;;64.30;60.57;;;16.60;99.90;;;;;;5010039;28;20254;-73
2022/07/22 02:03:05;;;;;;;61.77;58.17;;;16.50;99.90;;;;;;5011943;28;20546;-73
2022/07/22 02:05:31;;;;;;;91.97;86.83;;;16.60;99.90;;;;;;5011866;28;20172;-73
2022/07/22 02:08:01;;;;;;;92.13;87.30;;;16.70;99.90;;;;;;5011074;28;20176;-74
2022/07/22 02:10:27;;;;;;;90.53;85.53;;;16.60;99.90;;;;;;5010141;28;20199;-73
2022/07/22 02:12:53;;;;;;;85.17;80.60;;;16.60;99.90;;;;;;5014440;28;20182;-73
2022/07/22 02:15:19;;;;;;;48.83;45.93;;;16.50;99.90;;;;;;5011948;28;20184;-73
2022/07/22 02:17:45;;;;;;;45.57;42.93;;;16.60;99.90;;;;;;5011115;28;20190;-73
2022/07/22 02:20:11;;;;;;;69.47;65.33;;;16.60;99.90;;;;;;5011630;28;20207;-75
2022/07/22 02:22:37;;;;;;;119.80;112.67;;;16.70;99.90;;;;;;5011569;28;20183;-75
2022/07/22 02:25:03;;;;;;;103.70;98.13;;;16.80;99.90;;;;;;5011683;28;20322;-75
2022/07/22 02:27:29;;;;;;;126.93;120.03;;;16.80;99.90;;;;;;5009582;28;20191;-75
2022/07/22 02:29:54;;;;;;;97.63;92.33;;;16.70;99.90;;;;;;5011262;28;20195;-75
2022/07/22 02:32:20;;;;;;;111.17;105.10;;;16.70;99.90;;;;;;5011108;28;20175;-75
2022/07/22 02:34:46;;;;;;;110.50;104.70;;;16.70;99.90;;;;;;5011428;28;20207;-75
2022/07/22 02:37:12;;;;;;;109.23;103.37;;;16.60;99.90;;;;;;5010721;28;20543;-75
2022/07/22 02:39:37;;;;;;;128.33;121.43;;;16.60;99.90;;;;;;5010896;28;20754;-75
2022/07/22 02:42:03;;;;;;;130.13;123.00;;;16.60;99.90;;;;;;5011349;28;20178;-75
2022/07/22 02:44:29;;;;;;;132.77;125.90;;;16.60;99.90;;;;;;5011396;28;20633;-75
2022/07/22 02:46:55;;;;;;;132.33;125.53;;;16.50;99.90;;;;;;5009692;28;20198;-75
2022/07/22 02:49:21;;;;;;;83.30;78.60;;;16.50;99.90;;;;;;5009599;28;20602;-75
2022/07/22 02:51:47;;;;;;;40.40;38.00;;;16.50;99.90;;;;;;5010597;28;20541;-75
2022/07/22 02:54:12;;;;;;;65.53;61.77;;;16.50;99.90;;;;;;5010044;28;20302;-75
2022/07/22 02:56:38;;;;;;;94.97;89.83;;;16.50;99.90;;;;;;5009922;28;20184;-74
2022/07/22 02:59:04;;;;;;;86.60;82.00;;;16.40;99.90;;;;;;5010283;28;20214;-74
2022/07/22 03:01:30;;;;;;;33.70;31.70;;;16.30;99.90;;;;;;5011140;28;20640;-75
2022/07/22 03:03:56;;;;;;;26.47;24.30;;;16.40;99.90;;;;;;5011054;28;20187;-75
2022/07/22 03:06:22;;;;;;;42.70;40.03;;;16.50;99.90;;;;;;5011369;28;20191;-75
2022/07/22 03:08:48;;;;;;;39.50;37.20;;;16.50;99.90;;;;;;5010508;28;20191;-73
2022/07/22 03:11:13;;;;;;;49.87;46.53;;;16.50;99.90;;;;;;5011267;28;20179;-73
2022/07/22 03:13:39;;;;;;;65.10;61.50;;;16.50;99.90;;;;;;5013725;28;20209;-74
2022/07/22 03:16:05;;;;;;;48.17;45.20;;;16.50;99.90;;;;;;5015110;28;20190;-73
2022/07/22 03:18:31;;;;;;;62.17;58.40;;;16.50;99.90;;;;;;5013958;28;20283;-73
2022/07/22 03:20:56;;;;;;;62.83;59.20;;;16.50;99.90;;;;;;5014884;28;20207;-74
2022/07/22 03:23:22;;;;;;;48.30;45.37;;;16.40;99.90;;;;;;5014573;28;20194;-73
2022/07/22 03:25:48;;;;;;;45.90;43.37;;;16.40;99.90;;;;;;5014993;28;20183;-74
2022/07/22 03:28:14;;;;;;;55.30;52.03;;;16.40;99.90;;;;;;5013984;28;20266;-74
2022/07/22 03:30:40;;;;;;;52.20;48.83;;;16.30;99.90;;;;;;5013413;28;20200;-75
2022/07/22 03:33:05;;;;;;;42.43;39.93;;;16.30;99.90;;;;;;5013368;28;20569;-74
2022/07/22 03:35:31;;;;;;;68.93;65.13;;;16.30;99.90;;;;;;5013284;28;20622;-74
2022/07/22 03:37:57;;;;;;;65.03;61.27;;;16.20;99.90;;;;;;5014043;28;20184;-74
2022/07/22 03:40:23;;;;;;;46.00;43.23;;;16.20;99.90;;;;;;5014252;28;20278;-74
2022/07/22 03:42:49;;;;;;;41.47;38.67;;;16.20;99.90;;;;;;5014570;28;20188;-74
2022/07/22 03:45:15;;;;;;;46.27;43.20;;;16.20;99.90;;;;;;5015175;28;20739;-74
2022/07/22 03:47:41;;;;;;;45.83;43.17;;;16.30;99.90;;;;;;5014555;28;20211;-74
2022/07/22 03:50:07;;;;;;;62.57;59.10;;;16.20;99.90;;;;;;5034642;23;20720;-72
2022/07/22 03:52:33;;;;;;;43.27;40.70;;;16.10;99.90;;;;;;5013081;28;20245;-72
2022/07/22 03:54:59;;;;;;;48.87;46.07;;;16.10;99.90;;;;;;5014193;28;20699;-72
2022/07/22 03:57:25;;;;;;;39.83;37.40;;;16.20;99.90;;;;;;5012411;28;20180;-72
2022/07/22 03:59:50;;;;;;;38.67;36.20;;;16.20;99.90;;;;;;4998773;28;20203;-72
2022/07/22 04:02:17;;;;;;;39.77;37.20;;;16.20;99.90;;;;;;5010320;28;20188;-72
2022/07/22 04:04:43;;;;;;;39.47;37.13;;;16.20;99.90;;;;;;5001038;28;20191;-72
2022/07/22 04:07:09;;;;;;;40.17;37.47;;;16.20;99.90;;;;;;5014535;28;20183;-72
2022/07/22 04:09:34;;;;;;;42.60;39.97;;;16.10;99.90;;;;;;5011830;28;20219;-71
2022/07/22 04:12:00;;;;;;;37.40;35.00;;;16.10;99.90;;;;;;5020019;28;20184;-73
2022/07/22 04:14:26;;;;;;;40.47;37.83;;;16.10;99.90;;;;;;5011261;28;20302;-72
2022/07/22 04:16:53;;;;;;;40.20;37.43;;;16.20;99.90;;;;;;5026655;28;20187;-73
2022/07/22 04:19:19;;;;;;;39.73;36.80;;;16.20;99.90;;;;;;5030932;28;20290;-72
2022/07/22 04:21:45;;;;;;;40.97;38.57;;;16.30;99.90;;;;;;5015729;28;20731;-72
2022/07/22 04:24:11;;;;;;;41.30;39.00;;;16.30;99.90;;;;;;5012770;28;20176;-73
2022/07/22 04:26:36;;;;;;;44.40;41.93;;;16.30;99.90;;;;;;5013070;28;20271;-73
2022/07/22 04:29:04;;;;;;;41.30;38.60;;;16.40;99.90;;;;;;5010792;28;20187;-73
2022/07/22 04:31:30;;;;;;;39.17;36.97;;;16.50;99.90;;;;;;5011997;28;20182;-72
2022/07/22 04:33:57;;;;;;;44.17;41.43;;;16.50;99.90;;;;;;5012997;28;20688;-72
2022/07/22 04:36:23;;;;;;;36.57;34.23;;;16.60;99.90;;;;;;5012036;28;20745;-73
2022/07/22 04:38:49;;;;;;;37.70;35.13;;;16.70;99.90;;;;;;5012762;28;20180;-73
2022/07/22 04:41:15;;;;;;;31.77;29.77;;;16.80;99.90;;;;;;5012604;28;20211;-72
2022/07/22 04:43:41;;;;;;;21.73;19.97;;;16.80;99.90;;;;;;5011946;28;20175;-73
2022/07/22 04:46:07;;;;;;;26.93;25.03;;;16.80;99.90;;;;;;5012629;28;20270;-72
2022/07/22 04:48:33;;;;;;;42.70;40.07;;;16.80;99.90;;;;;;5011921;28;20188;-73
2022/07/22 04:51:00;;;;;;;57.03;53.70;;;16.90;99.90;;;;;;5011586;28;20218;-74
2022/07/22 04:53:26;;;;;;;62.77;59.17;;;17.00;99.90;;;;;;5014014;28;20266;-72
2022/07/22 04:55:52;;;;;;;23.53;21.93;;;17.00;99.90;;;;;;5012402;28;20187;-74
2022/07/22 04:58:18;;;;;;;16.67;15.37;;;17.10;99.90;;;;;;5010765;28;20524;-81
2022/07/22 05:00:44;;;;;;;13.30;11.93;;;17.10;99.90;;;;;;5014889;28;20208;-79
2022/07/22 05:03:10;;;;;;;14.07;12.87;;;17.20;99.90;;;;;;5015714;28;20171;-81
2022/07/22 05:05:35;;;;;;;13.90;12.80;;;17.30;99.90;;;;;;5014533;28;20180;-80
2022/07/22 05:08:01;;;;;;;14.93;13.53;;;17.40;99.90;;;;;;5017615;28;20183;-80
2022/07/22 05:10:27;;;;;;;20.90;19.20;;;17.50;99.90;;;;;;5019683;28;20377;-81
2022/07/22 05:12:53;;;;;;;21.83;20.23;;;17.80;99.90;;;;;;5014696;28;20175;-81
2022/07/22 05:15:19;;;;;;;48.63;45.70;;;18.10;99.90;;;;;;5013376;28;20218;-80
2022/07/22 05:17:45;;;;;;;26.67;24.87;;;18.60;99.90;;;;;;5015770;28;20222;-80
2022/07/22 05:20:11;;;;;;;26.57;24.87;;;19.10;99.90;;;;;;5017160;28;20231;-80
2022/07/22 05:22:37;;;;;;;62.50;58.83;;;19.70;99.90;;;;;;5020215;28;20183;-81
2022/07/22 05:25:03;;;;;;;128.32;121.85;;;20.30;99.90;;;;;;5014224;28;20672;-80
2022/07/22 05:27:29;;;;;;;46.25;43.72;;;20.80;99.90;;;;;;5012163;28;20184;-80
2022/07/22 05:29:56;;;;;;;46.92;44.28;;;21.20;99.90;;;;;;5015538;28;20203;-79
2022/07/22 05:32:22;;;;;;;17.98;16.50;;;21.50;99.90;;;;;;5018094;28;20233;-81
2022/07/22 05:34:47;;;;;;;14.77;13.57;;;21.90;99.90;;;;;;5026225;28;20279;-79
2022/07/22 05:37:15;;;;;;;13.70;12.73;;;22.20;99.90;;;;;;5033537;28;20709;-78
2022/07/22 05:39:43;;;;;;;22.17;20.80;;;22.30;99.90;;;;;;5025994;28;20259;-79
2022/07/22 05:42:09;;;;;;;21.88;20.38;;;22.50;99.90;;;;;;5029330;28;20656;-77
2022/07/22 05:44:35;;;;;;;30.10;28.17;;;22.70;99.90;;;;;;5024900;28;20205;-83
2022/07/22 05:47:01;;;;;;;21.25;19.70;;;23.10;99.90;;;;;;5015593;28;20281;-81
2022/07/22 05:49:26;;;;;;;12.77;11.77;;;23.30;99.90;;;;;;5014091;28;20203;-81
2022/07/22 05:51:53;;;;;;;14.05;12.75;;;23.50;99.90;;;;;;5013397;28;20190;-82
2022/07/22 05:54:20;;;;;;;13.50;12.50;;;23.70;99.90;;;;;;5004202;28;20596;-79
2022/07/22 05:56:45;;;;;;;17.08;15.75;;;24.10;99.90;;;;;;4994377;28;20183;-81
2022/07/22 05:59:11;;;;;;;26.40;24.88;;;24.20;99.90;;;;;;4993581;28;20180;-82
2022/07/22 06:01:37;;;;;;;45.45;42.83;;;24.50;99.90;;;;;;5010403;28;20235;-80
2022/07/22 06:04:03;;;;;;;90.50;85.72;;;24.90;99.90;;;;;;5005560;28;20667;-80
2022/07/22 06:06:29;;;;;;;118.38;112.32;;;24.90;99.90;;;;;;5032277;28;20189;-79
2022/07/22 06:08:55;;;;;;;125.78;119.05;;;25.10;99.90;;;;;;5017569;28;20273;-79
2022/07/22 06:11:21;;;;;;;59.40;55.97;;;25.30;99.90;;;;;;5013026;28;20310;-78
2022/07/22 06:13:47;;;;;;;50.70;47.78;;;25.60;99.90;;;;;;5014345;28;20214;-81
2022/07/22 06:16:12;;;;;;;79.43;75.28;;;25.60;99.90;;;;;;5013190;28;20191;-80
2022/07/22 06:18:38;;;;;;;37.13;34.72;;;25.10;99.90;;;;;;5012470;28;20211;-81
2022/07/22 06:21:05;;;;;;;24.80;23.17;;;25.10;99.90;;;;;;5010366;28;20203;-82
2022/07/22 06:23:30;;;;;;;11.95;11.05;;;25.60;99.90;;;;;;5013865;28;20182;-76
2022/07/22 06:25:56;;;;;;;13.10;12.18;;;26.20;99.90;;;;;;5012819;28;20565;-79
2022/07/22 06:28:22;;;;;;;9.93;8.90;;;26.30;99.90;;;;;;5011826;28;20176;-79
2022/07/22 06:30:48;;;;;;;11.75;10.85;;;26.20;99.90;;;;;;5013751;28;20270;-79
2022/07/22 06:33:14;;;;;;;12.68;11.73;;;26.60;99.90;;;;;;5011405;28;20587;-79
2022/07/22 06:35:40;;;;;;;12.88;11.77;;;26.80;99.90;;;;;;5011648;28;20206;-79
2022/07/22 06:38:07;;;;;;;10.38;9.50;;;26.90;99.90;;;;;;5010885;28;20738;-79
2022/07/22 06:40:34;;;;;;;10.20;9.40;;;27.10;99.90;;;;;;5028817;28;20195;-79
2022/07/22 06:43:00;;;;;;;9.68;8.95;;;27.40;99.90;;;;;;5013974;28;20183;-78
2022/07/22 06:45:26;;;;;;;12.40;11.48;;;27.50;99.90;;;;;;5011893;28;20538;-78
2022/07/22 06:47:52;;;;;;;14.18;13.18;;;27.60;99.90;;;;;;5018313;28;20194;-77
2022/07/22 06:50:18;;;;;;;15.05;13.65;;;28.00;99.90;;;;;;5018703;28;20216;-79
2022/07/22 06:52:44;;;;;;;15.18;13.98;;;27.90;99.90;;;;;;5015085;28;20219;-78
2022/07/22 06:55:11;;;;;;;16.55;15.18;;;27.90;99.90;;;;;;5012630;28;20250;-79
2022/07/22 06:57:38;;;;;;;14.57;13.40;;;28.20;99.90;;;;;;5011617;28;20684;-78
2022/07/22 07:00:07;;;;;;;12.48;11.55;;;28.40;99.90;;;;;;5011999;28;20290;-80
2022/07/22 07:02:33;;;;;;;11.70;10.70;;;28.50;99.90;;;;;;5027303;28;20184;-78
2022/07/22 07:04:59;;;;;;;17.20;15.93;;;28.40;99.90;;;;;;5026730;28;20175;-80
2022/07/22 07:07:24;;;;;;;20.35;18.73;;;27.70;99.90;;;;;;5012019;28;20183;-80
2022/07/22 07:09:50;;;;;;;21.23;19.88;;;27.80;99.90;;;;;;5021533;28;20209;-78
2022/07/22 07:12:16;;;;;;;17.70;16.38;;;28.20;99.90;;;;;;5018711;28;20188;-79
2022/07/22 07:14:42;;;;;;;13.90;12.80;;;28.50;99.90;;;;;;5013549;28;20634;-80
2022/07/22 07:17:08;;;;;;;12.45;11.65;;;28.70;99.90;;;;;;5011239;28;20333;-80
2022/07/22 07:19:34;;;;;;;12.00;11.10;;;28.70;99.90;;;;;;5012515;28;20715;-80
2022/07/22 07:22:00;;;;;;;11.43;10.48;;;28.70;99.80;;;;;;5013454;28;20184;-79
2022/07/22 07:24:26;;;;;;;13.95;12.93;;;29.10;99.20;;;;;;5012443;28;20180;-80
2022/07/22 07:26:51;;;;;;;15.02;13.93;;;29.30;98.30;;;;;;5012560;28;20190;-79
2022/07/22 07:29:17;;;;;;;14.98;13.75;;;29.20;98.80;;;;;;5014708;28;20270;-79
2022/07/22 07:31:43;;;;;;;15.65;14.35;;;29.20;98.50;;;;;;5021790;28;20184;-78
2022/07/22 07:34:09;;;;;;;14.18;12.95;;;28.80;98.20;;;;;;5016226;28;20242;-79
2022/07/22 07:36:34;;;;;;;16.77;15.50;;;28.80;98.70;;;;;;5013129;28;20238;-80
2022/07/22 07:39:00;;;;;;;14.80;13.63;;;29.00;98.50;;;;;;5017457;28;20176;-77
2022/07/22 07:41:26;;;;;;;16.48;15.13;;;29.30;98.80;;;;;;5016428;28;20606;-79
2022/07/22 07:43:52;;;;;;;14.00;13.10;;;29.70;97.80;;;;;;5022603;28;20192;-79
2022/07/22 07:46:18;;;;;;;16.42;15.30;;;29.20;97.40;;;;;;5013370;28;20194;-80
2022/07/22 07:48:43;;;;;;;16.98;15.75;;;29.20;98.50;;;;;;5012766;28;20179;-80
2022/07/22 07:51:09;;;;;;;15.98;14.77;;;29.20;97.60;;;;;;5011855;28;20227;-79
2022/07/22 07:53:35;;;;;;;14.43;13.25;;;28.90;98.20;;;;;;5013445;28;20211;-80
2022/07/22 07:56:01;;;;;;;15.77;13.75;;;29.00;98.20;;;;;;5012281;28;20187;-80
2022/07/22 07:58:27;;;;;;;14.68;13.68;;;29.30;97.80;;;;;;5014737;28;20183;-80
2022/07/22 08:00:53;;;;;;;14.45;13.27;;;29.60;96.70;;;;;;5018317;28;20253;-78
2022/07/22 08:03:18;;;;;;;13.48;12.57;;;29.70;96.70;;;;;;5016406;28;20215;-79
2022/07/22 08:05:44;;;;;;;10.52;9.73;;;30.30;96.60;;;;;;5015905;28;20184;-78
2022/07/22 08:08:10;;;;;;;10.65;9.55;;;30.20;95.40;;;;;;5016145;28;20231;-79
2022/07/22 08:10:36;;;;;;;12.82;11.82;;;30.20;95.90;;;;;;5019333;28;20203;-77
2022/07/22 08:13:02;;;;;;;11.13;10.30;;;30.20;95.50;;;;;;5020855;28;20179;-79
2022/07/22 08:15:29;;;;;;;10.40;9.43;;;30.40;95.50;;;;;;5016520;28;20214;-77
2022/07/22 08:17:55;;;;;;;11.57;10.68;;;30.20;94.80;;;;;;5014466;28;20202;-78
2022/07/22 08:20:22;;;;;;;11.18;9.70;;;30.10;95.10;;;;;;5014604;28;20208;-77
2022/07/22 08:22:49;;;;;;;9.95;9.13;;;29.70;95.00;;;;;;5019996;28;20176;-78
2022/07/22 08:25:14;;;;;;;10.88;9.95;;;29.30;96.30;;;;;;5015693;28;20849;-79
2022/07/22 08:27:40;;;;;;;9.32;8.52;;;29.60;96.30;;;;;;5013854;28;20267;-80
2022/07/22 08:30:06;;;;;;;9.68;8.77;;;29.90;95.50;;;;;;5013589;28;20213;-79
2022/07/22 08:32:34;;;;;;;9.70;8.82;;;29.90;95.40;;;;;;5004380;28;20695;-79
2022/07/22 08:35:00;;;;;;;11.43;10.43;;;30.50;95.50;;;;;;5008876;28;20217;-79
2022/07/22 08:37:26;;;;;;;12.48;9.98;;;30.50;94.90;;;;;;5016274;28;20186;-78
2022/07/22 08:39:53;;;;;;;8.90;8.30;;;30.70;94.00;;;;;;5035266;28;20229;-79
2022/07/22 08:42:22;;;;;;;10.05;9.00;;;30.80;93.90;;;;;;5027997;28;20175;-79
2022/07/22 08:44:49;;;;;;;9.63;8.82;;;30.90;94.30;;;;;;5015090;28;20184;-78
2022/07/22 08:47:15;;;;;;;8.95;8.07;;;31.30;93.10;;;;;;5013595;28;20216;-80
2022/07/22 08:49:41;;;;;;;9.80;8.98;;;31.50;92.70;;;;;;5015342;28;20208;-80
2022/07/22 08:52:06;;;;;;;9.73;8.82;;;31.70;92.70;;;;;;5014518;28;20191;-79
2022/07/22 08:54:32;;;;;;;9.48;8.70;;;32.00;92.20;;;;;;5012843;28;20238;-78
2022/07/22 08:56:58;;;;;;;12.82;11.82;;;31.90;89.70;;;;;;5013265;28;20304;-79
2022/07/22 08:59:25;;;;;;;11.68;10.48;;;31.90;90.50;;;;;;5014934;28;20286;-78
2022/07/22 09:02:09;;;;;;;10.15;9.20;;;31.90;90.10;;;;;;5014401;28;20186;-79
2022/07/22 09:05:01;;;;;;;9.88;9.05;;;32.10;89.60;;;;;;5011326;28;20683;-73
2022/07/22 09:07:47;;;;;;;11.38;10.40;;;32.10;88.10;;;;;;5009208;28;20253;-73
2022/07/22 09:10:16;;;;;;;12.73;11.90;;;32.20;90.70;;;;;;5010440;28;20245;-73
2022/07/22 09:12:58;;;;;;;12.38;11.55;;;32.20;88.70;;;;;;5011697;28;20180;-73
2022/07/22 09:15:30;;;;;;;12.98;11.98;;;32.10;89.40;;;;;;5012429;28;20238;-74
2022/07/22 09:17:58;;;;;;;11.73;10.93;;;32.30;88.30;;;;;;5010530;28;20559;-75
2022/07/22 09:20:26;;;;;;;11.88;10.73;;;32.70;87.70;;;;;;5012056;28;20226;-76
2022/07/22 09:22:52;;;;;;;10.98;10.13;;;32.40;87.70;;;;;;5011078;28;20207;-73
2022/07/22 09:25:35;;;;;;;10.52;9.77;;;32.00;87.20;;;;;;5011458;28;20204;-76
2022/07/22 09:28:07;;;;;;;10.57;9.85;;;32.20;94.20;;;;;;5014936;28;20184;-77
2022/07/22 09:30:55;;;;;;;12.68;11.52;;;32.90;92.80;;;;;;5016882;28;20289;-77
2022/07/22 09:33:22;;;;;;;8.07;7.38;;;33.70;84.70;;;;;;5011572;28;20282;-76
2022/07/22 09:35:49;;;;;;;8.15;7.55;;;33.60;81.30;;;;;;5011729;28;20187;-77
2022/07/22 09:38:17;;;;;;;10.40;9.70;;;32.60;81.60;;;;;;5027901;28;20168;-76
2022/07/22 09:40:45;;;;;;;11.75;8.63;;;32.30;84.00;;;;;;5018394;28;20649;-78
2022/07/22 09:43:14;;;;;;;11.40;10.60;;;32.20;83.70;;;;;;5017890;28;20184;-77
2022/07/22 09:45:48;;;;;;;9.27;8.43;;;32.60;85.00;;;;;;5014413;28;20204;-77
2022/07/22 09:48:15;;;;;;;8.20;7.60;;;32.50;80.50;;;;;;5011622;28;20215;-76
2022/07/22 09:50:41;;;;;;;16.88;15.82;;;32.80;79.10;;;;;;5041913;22;20226;-77
2022/07/22 09:53:07;;;;;;;7.28;6.68;;;33.10;86.40;;;;;;5015150;28;20190;-78
2022/07/22 09:55:37;;;;;;;11.27;10.27;;;33.40;76.30;;;;;;5018007;28;20215;-79
2022/07/22 09:58:03;;;;;;;7.50;6.90;;;33.10;84.80;;;;;;5037948;28;20596;-77
2022/07/22 10:00:29;;;;;;;6.82;6.20;;;33.40;74.20;;;;;;5044997;28;20191;-79
2022/07/22 10:02:58;;;;;;;8.63;7.93;;;33.60;74.60;;;;;;5033579;28;20245;-79
2022/07/22 10:05:30;;;;;;;10.52;9.57;;;33.60;79.30;;;;;;5017886;28;20180;-79
2022/07/22 10:07:59;;;;;;;11.60;10.80;;;33.60;74.40;;;;;;4995100;28;20192;-79
2022/07/22 10:10:28;;;;;;;22.00;20.55;;;33.30;75.30;;;;;;5013836;28;20696;-77
2022/07/22 10:12:56;;;;;;;38.20;35.65;;;33.40;75.10;;;;;;4997303;28;20615;-78
2022/07/22 10:15:24;;;;;;;14.18;13.02;;;33.40;73.20;;;;;;4995895;28;20223;-74
2022/07/22 10:17:52;;;;;;;9.02;8.43;;;33.10;75.20;;;;;;5009727;28;20198;-74
2022/07/22 10:20:26;;;;;;;9.18;8.38;;;32.80;74.80;;;;;;4990777;28;20204;-74
2022/07/22 10:22:54;;;;;;;9.30;8.60;;;32.80;75.00;;;;;;4992806;28;20183;-74
2022/07/22 10:25:23;;;;;;;8.10;7.50;;;33.10;73.00;;;;;;4992166;28;20187;-74
2022/07/22 10:27:55;;;;;;;7.20;6.65;;;33.40;76.10;;;;;;4993903;28;20220;-75
2022/07/22 10:30:26;;;;;;;10.25;9.25;;;33.90;72.90;;;;;;5006517;28;20208;-75
2022/07/22 10:33:17;;;;;;;9.98;9.13;;;33.70;71.60;;;;;;4996429;28;20267;-75
2022/07/22 10:35:43;;;;;;;9.23;8.35;;;33.50;72.10;;;;;;4989136;28;20196;-76
2022/07/22 10:38:10;;;;;;;17.02;15.95;;;33.80;72.70;;;;;;5010464;28;20194;-75
2022/07/22 10:40:55;;;;;;;71.88;68.10;;;34.20;71.00;;;;;;5023870;28;20208;-82
2022/07/22 10:43:26;;;;;;;133.60;127.13;;;34.60;69.10;;;;;;5002235;28;20195;-82
2022/07/22 10:45:59;;;;;;;26.45;24.70;;;34.60;67.40;;;;;;5013217;28;20183;-82
2022/07/22 10:48:45;;;;;;;169.02;160.68;;;34.70;73.40;;;;;;4993561;28;20212;-83
2022/07/22 10:51:21;;;;;;;216.27;205.63;;;35.60;68.30;;;;;;4993653;28;20226;-82
2022/07/22 10:53:51;;;;;;;340.90;322.98;;;35.70;70.00;;;;;;4992437;28;20255;-81
2022/07/22 10:56:27;;;;;;;352.80;333.98;;;36.20;65.00;;;;;;4993789;28;20284;-83
2022/07/22 10:59:12;;;;;;;372.15;352.45;;;35.80;65.70;;;;;;4991561;28;20187;-83
2022/07/22 11:01:44;;;;;;;401.42;379.90;;;36.10;63.90;;;;;;4991519;28;20214;-84
2022/07/22 11:04:22;;;;;;;391.02;369.73;;;36.20;64.50;;;;;;5001955;28;20179;-85
2022/07/22 11:06:51;;;;;;;419.00;396.08;;;36.10;63.90;;;;;;5019052;28;20214;-84
2022/07/22 11:09:19;;;;;;;383.17;362.83;;;35.60;63.00;;;;;;4998254;28;20207;-82
2022/07/22 11:11:50;;;;;;;379.92;359.55;;;35.60;64.30;;;;;;4996784;28;20728;-83
2022/07/22 11:14:19;;;;;;;380.75;360.52;;;35.60;63.80;;;;;;4997026;28;20706;-82
2022/07/22 11:16:47;;;;;;;402.55;380.80;;;35.70;60.80;;;;;;5015321;28;20184;-82
2022/07/22 11:19:14;;;;;;;395.90;374.73;;;35.50;62.60;;;;;;5015145;28;20183;-83
2022/07/22 11:21:40;;;;;;;422.95;399.75;;;36.20;65.40;;;;;;4996992;28;20206;-82
2022/07/22 11:24:07;;;;;;;380.88;360.27;;;37.40;59.50;;;;;;4998073;28;20179;-83
2022/07/22 11:26:40;;;;;;;440.70;416.13;;;36.90;59.90;;;;;;4997872;28;20187;-82
2022/07/22 11:29:08;;;;;;;317.75;301.35;;;36.70;61.10;;;;;;4997389;28;20274;-82
2022/07/22 11:31:35;;;;;;;176.40;167.70;;;37.10;57.60;;;;;;4999206;28;20581;-81
2022/07/22 11:34:06;;;;;;;248.48;236.13;;;37.60;57.50;;;;;;5004179;28;20215;-83
2022/07/22 11:36:36;;;;;;;332.40;315.30;;;36.90;58.00;;;;;;5010679;28;20278;-82
2022/07/22 11:39:03;;;;;;;408.20;386.38;;;36.00;58.90;;;;;;5028511;28;20184;-82
2022/07/22 11:41:30;;;;;;;399.40;377.95;;;36.20;59.40;;;;;;5016504;28;20195;-84
2022/07/22 11:43:57;;;;;;;259.80;246.95;;;37.00;58.60;;;;;;5005781;28;20207;-83
2022/07/22 11:46:25;;;;;;;174.45;165.93;;;37.40;56.90;;;;;;5021272;28;20175;-84
2022/07/22 11:48:56;;;;;;;122.10;115.82;;;38.40;55.50;;;;;;5010470;28;20203;-84
2022/07/22 11:51:30;;;;;;;186.63;177.32;;;38.10;54.90;;;;;;5027016;28;20260;-83
2022/07/22 11:53:57;;;;;;;135.45;128.68;;;37.40;55.90;;;;;;5049460;28;20183;-83
2022/07/22 11:56:24;;;;;;;103.85;98.32;;;37.70;55.80;;;;;;5055934;28;20187;-80
2022/07/22 11:58:54;;;;;;;49.97;47.28;;;38.20;54.40;;;;;;5022988;28;20188;-77
2022/07/22 12:01:22;;;;;;;74.63;70.95;;;38.30;53.20;;;;;;5022360;28;20238;-76
2022/07/22 12:03:51;;;;;;;60.65;57.55;;;37.80;54.80;;;;;;5020850;28;20238;-76
2022/07/22 12:06:19;;;;;;;61.03;57.72;;;38.20;53.40;;;;;;5012220;28;20202;-77
2022/07/22 12:08:49;;;;;;;45.10;42.75;;;38.60;53.40;;;;;;5018047;28;20184;-77
2022/07/22 12:11:17;;;;;;;30.55;28.70;;;39.20;51.90;;;;;;4998958;28;20564;-78
2022/07/22 12:13:48;;;;;;;36.83;34.58;;;38.60;51.60;;;;;;4999045;28;20558;-79
2022/07/22 12:16:26;;;;;;;65.53;62.17;;;38.80;51.20;;;;;;5019110;28;20184;-78
2022/07/22 12:19:00;;;;;;;26.52;25.05;;;38.90;54.00;;;;;;5017163;28;20179;-79
2022/07/22 12:21:28;;;;;;;20.45;19.27;;;39.00;50.00;;;;;;4998906;28;20802;-80
2022/07/22 12:24:01;;;;;;;16.08;15.13;;;39.10;50.00;;;;;;4998371;28;20215;-81
2022/07/22 12:26:58;;;;;;;14.30;13.43;;;39.70;49.50;;;;;;4999231;28;20515;-79